Time,TemperatureF,DewpointF,PressureIn,WindDirection,WindDirectionDegrees,WindSpeedMPH,WindSpeedGustMPH,Humidity,HourlyPrecipIn,Conditions,Clouds,dailyrainin,SoftwareType,DateUTC
2013-10-14 00:02:00,51.7,49.0,30.35,NNW,335,0.0,0.0,89,0.00,,,0.00,weatherlink.com 1.10,2013-10-14 04:02:00,
2013-10-14 00:18:00,51.9,49.0,30.34,NNW,335,0.0,0.0,88,0.00,,,0.00,weatherlink.com 1.10,2013-10-14 04:18:00,
2013-10-14 00:33:00,52.0,49.0,30.34,NNW,335,0.0,0.0,88,0.00,,,0.00,weatherlink.com 1.10,2013-10-14 04:33:00,
2013-10-14 00:48:00,52.0,49.0,30.34,NNW,335,0.0,0.0,89,0.00,,,0.00,weatherlink.com 1.10,2013-10-14 04:48:00,
2013-10-14 01:03:00,52.1,49.0,30.34,NNW,335,0.0,0.0,88,0.00,,,0.00,weatherlink.com 1.10,2013-10-14 05:03:00,
2013-10-14 01:18:00,52.1,49.0,30.34,NNW,335,0.0,0.0,88,0.00,,,0.00,weatherlink.com 1.10,2013-10-14 05:18:00,
2013-10-14 01:33:00,52.0,49.0,30.34,NNW,335,0.0,0.0,90,0.00,,,0.00,weatherlink.com 1.10,2013-10-14 05:33:00,
2013-10-14 01:48:00,51.9,49.0,30.34,NNW,335,0.0,0.0,89,0.00,,,0.00,weatherlink.com 1.10,2013-10-14 05:48:00,
2013-10-14 02:03:00,52.0,49.0,30.33,NNW,335,0.0,0.0,89,0.00,,,0.00,weatherlink.com 1.10,2013-10-14 06:03:00,
2013-10-14 02:18:00,51.9,49.0,30.33,NNW,335,0.0,0.0,90,0.00,,,0.00,weatherlink.com 1.10,2013-10-14 06:18:00,
2013-10-14 02:33:00,51.8,49.0,30.32,NNW,335,0.0,0.0,90,0.00,,,0.00,weatherlink.com 1.10,2013-10-14 06:33:00,
2013-10-14 02:48:00,51.8,49.0,30.32,NNW,335,0.0,0.0,90,0.00,,,0.00,weatherlink.com 1.10,2013-10-14 06:48:00,
2013-10-14 03:03:00,51.7,49.0,30.31,NNW,335,0.0,0.0,89,0.00,,,0.00,weatherlink.com 1.10,2013-10-14 07:03:00,
2013-10-14 03:18:00,51.8,49.0,30.31,NNW,335,0.0,0.0,89,0.00,,,0.00,weatherlink.com 1.10,2013-10-14 07:18:00,
2013-10-14 03:33:00,51.6,49.0,30.31,NNW,335,0.0,0.0,90,0.00,,,0.00,weatherlink.com 1.10,2013-10-14 07:33:00,
2013-10-14 03:48:00,51.7,50.0,30.31,NNW,335,0.0,0.0,92,0.00,,,0.00,weatherlink.com 1.10,2013-10-14 07:48:00,
2013-10-14 04:03:00,51.6,49.0,30.31,NNW,335,0.0,0.0,91,0.00,,,0.00,weatherlink.com 1.10,2013-10-14 08:03:00,
2013-10-14 04:18:00,51.4,49.0,30.30,NNW,335,0.0,0.0,91,0.00,,,0.00,weatherlink.com 1.10,2013-10-14 08:18:00,
2013-10-14 04:33:00,51.2,49.0,30.30,NNW,335,0.0,0.0,91,0.00,,,0.00,weatherlink.com 1.10,2013-10-14 08:33:00,
2013-10-14 04:48:00,51.1,49.0,30.30,NNW,335,0.0,0.0,91,0.00,,,0.00,weatherlink.com 1.10,2013-10-14 08:48:00,
2013-10-14 05:03:00,51.1,49.0,30.30,NNW,335,0.0,0.0,91,0.00,,,0.00,weatherlink.com 1.10,2013-10-14 09:03:00,
2013-10-14 05:18:00,51.1,48.0,30.30,NNW,335,0.0,0.0,90,0.00,,,0.00,weatherlink.com 1.10,2013-10-14 09:18:00,
2013-10-14 05:33:00,51.0,49.0,30.31,NNW,335,0.0,0.0,91,0.00,,,0.00,weatherlink.com 1.10,2013-10-14 09:33:00,
2013-10-14 05:48:00,50.9,48.0,30.31,NW,304,0.0,2.0,90,0.00,,,0.00,weatherlink.com 1.10,2013-10-14 09:48:00,
2013-10-14 06:03:00,50.9,48.0,30.31,NW,304,0.0,1.0,89,0.00,,,0.00,weatherlink.com 1.10,2013-10-14 10:03:00,
2013-10-14 06:18:00,50.8,48.0,30.31,NW,304,0.0,0.0,89,0.00,,,0.00,weatherlink.com 1.10,2013-10-14 10:18:00,
2013-10-14 06:33:00,50.5,48.0,30.31,NW,304,0.0,0.0,90,0.00,,,0.00,weatherlink.com 1.10,2013-10-14 10:33:00,
2013-10-14 06:48:00,49.7,47.0,30.31,NW,304,0.0,0.0,91,0.00,,,0.00,weatherlink.com 1.10,2013-10-14 10:48:00,
2013-10-14 07:03:00,49.3,47.0,30.32,NW,304,0.0,0.0,92,0.00,,,0.00,weatherlink.com 1.10,2013-10-14 11:03:00,
2013-10-14 07:18:00,48.8,47.0,30.32,NW,304,0.0,0.0,92,0.00,,,0.00,weatherlink.com 1.10,2013-10-14 11:18:00,
2013-10-14 07:33:00,48.7,47.0,30.32,NW,304,0.0,0.0,93,0.00,,,0.00,weatherlink.com 1.10,2013-10-14 11:33:00,
2013-10-14 07:48:00,48.4,47.0,30.32,NW,304,0.0,0.0,93,0.00,,,0.00,weatherlink.com 1.10,2013-10-14 11:48:00,
2013-10-14 08:03:00,48.5,47.0,30.31,NW,304,0.0,0.0,93,0.00,,,0.00,weatherlink.com 1.10,2013-10-14 12:03:00,
2013-10-14 08:18:00,48.8,47.0,30.32,NW,304,0.0,0.0,93,0.00,,,0.00,weatherlink.com 1.10,2013-10-14 12:18:00,
2013-10-14 08:33:00,50.4,48.0,30.32,NW,304,0.0,0.0,90,0.00,,,0.00,weatherlink.com 1.10,2013-10-14 12:33:00,
2013-10-14 08:48:00,51.7,48.0,30.32,WNW,291,0.0,1.0,86,0.00,,,0.00,weatherlink.com 1.10,2013-10-14 12:48:00,
2013-10-14 09:03:00,52.6,49.0,30.32,NNW,333,0.0,1.0,86,0.00,,,0.00,weatherlink.com 1.10,2013-10-14 13:03:00,
2013-10-14 09:18:00,53.7,49.0,30.32,South,183,0.0,3.0,83,0.00,,,0.00,weatherlink.com 1.10,2013-10-14 13:18:00,
2013-10-14 09:33:00,52.9,48.0,30.31,SSW,213,0.0,3.0,84,0.00,,,0.00,weatherlink.com 1.10,2013-10-14 13:33:00,
2013-10-14 09:48:00,54.9,50.0,30.32,SSW,203,2.0,3.0,82,0.00,,,0.00,weatherlink.com 1.10,2013-10-14 13:48:00,
2013-10-14 10:04:00,55.3,49.0,30.31,SW,221,3.0,4.0,79,0.00,,,0.00,weatherlink.com 1.10,2013-10-14 14:04:00,
2013-10-14 10:19:00,55.5,49.0,30.31,SW,223,3.0,4.0,79,0.00,,,0.00,weatherlink.com 1.10,2013-10-14 14:19:00,
2013-10-14 10:34:00,56.2,49.0,30.31,SW,224,1.0,3.0,77,0.00,,,0.00,weatherlink.com 1.10,2013-10-14 14:34:00,
2013-10-14 10:49:00,57.3,49.0,30.30,SE,125,1.0,5.0,75,0.00,,,0.00,weatherlink.com 1.10,2013-10-14 14:49:00,
2013-10-14 11:04:00,58.1,49.0,30.30,SE,138,0.0,4.0,73,0.00,,,0.00,weatherlink.com 1.10,2013-10-14 15:04:00,
2013-10-14 11:19:00,58.8,50.0,30.30,SSE,167,0.0,5.0,73,0.00,,,0.00,weatherlink.com 1.10,2013-10-14 15:19:00,
2013-10-14 11:34:00,59.1,50.0,30.29,SW,223,1.0,5.0,72,0.00,,,0.00,weatherlink.com 1.10,2013-10-14 15:34:00,
2013-10-14 11:49:00,59.2,51.0,30.29,SW,220,4.0,6.0,73,0.00,,,0.00,weatherlink.com 1.10,2013-10-14 15:49:00,
2013-10-14 12:04:00,60.8,52.0,30.28,SSW,208,3.0,5.0,72,0.00,,,0.00,weatherlink.com 1.10,2013-10-14 16:04:00,
2013-10-14 12:19:00,61.1,51.0,30.28,WSW,243,5.0,7.0,69,0.00,,,0.00,weatherlink.com 1.10,2013-10-14 16:19:00,
2013-10-14 12:34:00,61.7,51.0,30.27,SW,224,2.0,5.0,67,0.00,,,0.00,weatherlink.com 1.10,2013-10-14 16:34:00,
2013-10-14 12:49:00,62.3,51.0,30.26,SE,141,1.0,5.0,66,0.00,,,0.00,weatherlink.com 1.10,2013-10-14 16:49:00,
2013-10-14 13:04:00,63.6,51.0,30.25,SE,137,4.0,5.0,64,0.00,,,0.00,weatherlink.com 1.10,2013-10-14 17:04:00,
2013-10-14 13:19:00,63.1,51.0,30.25,SSW,203,1.0,6.0,66,0.00,,,0.00,weatherlink.com 1.10,2013-10-14 17:19:00,
2013-10-14 13:34:00,62.9,51.0,30.24,WSW,254,2.0,6.0,65,0.00,,,0.00,weatherlink.com 1.10,2013-10-14 17:34:00,
2013-10-14 13:49:00,63.1,51.0,30.24,WSW,242,3.0,6.0,64,0.00,,,0.00,weatherlink.com 1.10,2013-10-14 17:49:00,
2013-10-14 14:04:00,63.4,50.0,30.23,WSW,245,1.0,5.0,62,0.00,,,0.00,weatherlink.com 1.10,2013-10-14 18:04:00,
2013-10-14 14:19:00,63.6,50.0,30.23,SSE,148,2.0,6.0,62,0.00,,,0.00,weatherlink.com 1.10,2013-10-14 18:19:00,
2013-10-14 14:34:00,63.2,50.0,30.23,SW,218,0.0,5.0,62,0.00,,,0.00,weatherlink.com 1.10,2013-10-14 18:34:00,
2013-10-14 14:49:00,63.3,50.0,30.23,SSW,210,2.0,5.0,63,0.00,,,0.00,weatherlink.com 1.10,2013-10-14 18:49:00,
2013-10-14 15:04:00,63.5,51.0,30.23,South,178,0.0,5.0,63,0.00,,,0.00,weatherlink.com 1.10,2013-10-14 19:04:00,
2013-10-14 15:19:00,63.7,51.0,30.22,SSW,213,3.0,5.0,63,0.00,,,0.00,weatherlink.com 1.10,2013-10-14 19:19:00,
2013-10-14 15:34:00,63.8,51.0,30.23,SSE,164,1.0,4.0,63,0.00,,,0.00,weatherlink.com 1.10,2013-10-14 19:34:00,
2013-10-14 15:49:00,63.3,51.0,30.22,South,169,0.0,3.0,65,0.00,,,0.00,weatherlink.com 1.10,2013-10-14 19:49:00,
2013-10-14 16:04:00,63.2,51.0,30.21,SW,231,0.0,4.0,64,0.00,,,0.00,weatherlink.com 1.10,2013-10-14 20:04:00,
2013-10-14 16:19:00,63.0,51.0,30.21,SW,236,2.0,4.0,64,0.00,,,0.00,weatherlink.com 1.10,2013-10-14 20:19:00,
2013-10-14 16:34:00,62.8,50.0,30.21,SW,229,2.0,3.0,64,0.00,,,0.00,weatherlink.com 1.10,2013-10-14 20:34:00,
2013-10-14 16:49:00,62.3,51.0,30.21,SW,226,0.0,2.0,66,0.00,,,0.00,weatherlink.com 1.10,2013-10-14 20:49:00,
2013-10-14 17:04:00,62.3,51.0,30.22,SSE,163,0.0,2.0,67,0.00,,,0.00,weatherlink.com 1.10,2013-10-14 21:04:00,
2013-10-14 17:19:00,62.2,51.0,30.22,SW,232,0.0,2.0,67,0.00,,,0.00,weatherlink.com 1.10,2013-10-14 21:19:00,
2013-10-14 17:34:00,61.5,51.0,30.23,SW,232,0.0,0.0,68,0.00,,,0.00,weatherlink.com 1.10,2013-10-14 21:34:00,
2013-10-14 17:49:00,60.7,51.0,30.23,SW,232,0.0,0.0,71,0.00,,,0.00,weatherlink.com 1.10,2013-10-14 21:49:00,
2013-10-14 18:04:00,59.8,52.0,30.23,SW,236,0.0,0.0,75,0.00,,,0.00,weatherlink.com 1.10,2013-10-14 22:04:00,
2013-10-14 18:19:00,59.1,52.0,30.24,SW,236,0.0,1.0,77,0.00,,,0.00,weatherlink.com 1.10,2013-10-14 22:19:00,
2013-10-14 18:34:00,58.7,52.0,30.24,SW,236,0.0,0.0,77,0.00,,,0.00,weatherlink.com 1.10,2013-10-14 22:34:00,
2013-10-14 18:49:00,58.6,52.0,30.24,SW,236,0.0,0.0,78,0.00,,,0.00,weatherlink.com 1.10,2013-10-14 22:49:00,
2013-10-14 19:04:00,58.6,52.0,30.25,SW,236,0.0,0.0,80,0.00,,,0.00,weatherlink.com 1.10,2013-10-14 23:04:00,
2013-10-14 19:19:00,58.1,52.0,30.25,SW,236,0.0,0.0,81,0.00,,,0.00,weatherlink.com 1.10,2013-10-14 23:19:00,
2013-10-14 19:34:00,58.0,53.0,30.25,SW,236,0.0,0.0,82,0.00,,,0.00,weatherlink.com 1.10,2013-10-14 23:34:00,
2013-10-14 19:49:00,57.6,52.0,30.24,SW,236,0.0,0.0,81,0.00,,,0.00,weatherlink.com 1.10,2013-10-14 23:49:00,
2013-10-14 20:04:00,56.8,52.0,30.25,SW,236,0.0,0.0,83,0.00,,,0.00,weatherlink.com 1.10,2013-10-15 00:04:00,
2013-10-14 20:19:00,56.4,52.0,30.25,SW,236,0.0,0.0,84,0.00,,,0.00,weatherlink.com 1.10,2013-10-15 00:19:00,
2013-10-14 20:34:00,56.0,51.0,30.25,SE,142,0.0,0.0,84,0.00,,,0.00,weatherlink.com 1.10,2013-10-15 00:34:00,
2013-10-14 20:49:00,55.6,51.0,30.25,SE,142,0.0,0.0,85,0.00,,,0.00,weatherlink.com 1.10,2013-10-15 00:49:00,
2013-10-14 21:04:00,55.2,51.0,30.25,SE,140,0.0,0.0,86,0.00,,,0.00,weatherlink.com 1.10,2013-10-15 01:04:00,
2013-10-14 21:19:00,54.3,51.0,30.25,SE,140,0.0,0.0,88,0.00,,,0.00,weatherlink.com 1.10,2013-10-15 01:19:00,
2013-10-14 21:34:00,54.6,51.0,30.25,SE,140,0.0,0.0,88,0.00,,,0.00,weatherlink.com 1.10,2013-10-15 01:34:00,
2013-10-14 21:49:00,54.6,51.0,30.25,SE,140,0.0,0.0,88,0.00,,,0.00,weatherlink.com 1.10,2013-10-15 01:49:00,
2013-10-14 22:05:00,54.5,51.0,30.25,SE,140,0.0,0.0,88,0.00,,,0.00,weatherlink.com 1.10,2013-10-15 02:05:00,
2013-10-14 22:20:00,54.5,51.0,30.25,SE,140,0.0,0.0,88,0.00,,,0.00,weatherlink.com 1.10,2013-10-15 02:20:00,
2013-10-14 22:35:00,54.7,51.0,30.26,SE,140,0.0,0.0,88,0.00,,,0.00,weatherlink.com 1.10,2013-10-15 02:35:00,
2013-10-14 22:50:00,54.4,51.0,30.25,SE,140,0.0,0.0,89,0.00,,,0.00,weatherlink.com 1.10,2013-10-15 02:50:00,
2013-10-14 23:05:00,54.6,52.0,30.25,SE,140,0.0,0.0,89,0.00,,,0.00,weatherlink.com 1.10,2013-10-15 03:05:00,
2013-10-14 23:20:00,55.1,52.0,30.25,SE,140,0.0,0.0,88,0.00,,,0.00,weatherlink.com 1.10,2013-10-15 03:20:00,
2013-10-14 23:35:00,54.9,52.0,30.25,SE,140,0.0,0.0,88,0.00,,,0.00,weatherlink.com 1.10,2013-10-15 03:35:00,
2013-10-14 23:50:00,55.1,52.0,30.25,SE,140,0.0,0.0,88,0.00,,,0.00,weatherlink.com 1.10,2013-10-15 03:50:00,